createdAt,value
2023-05-24T00:00:29.014Z,100600.09
2023-05-24T00:03:22.487Z,100597.35
2023-05-24T00:05:56.115Z,100597.87
2023-05-24T00:08:28.934Z,100595.73
2023-05-24T00:11:01.767Z,100592.73
2023-05-24T00:13:34.675Z,100593.46
2023-05-24T00:16:07.756Z,100590.23
2023-05-24T00:18:41.730Z,100591.64
2023-05-24T00:21:14.689Z,100591.30
2023-05-24T00:23:47.717Z,100590.43
2023-05-24T00:26:21.851Z,100588.45
2023-05-24T00:28:59.991Z,100587.81
2023-05-24T00:31:33.471Z,100589.50
2023-05-24T00:34:06.736Z,100586.92
2023-05-24T00:36:39.640Z,100587.62
2023-05-24T00:39:12.617Z,100585.83
2023-05-24T00:41:45.517Z,100586.89
2023-05-24T00:44:18.781Z,100587.05
2023-05-24T00:46:52.395Z,100582.02
2023-05-24T00:49:27.237Z,100579.83
2023-05-24T00:52:01.449Z,100579.98
2023-05-24T00:54:34.284Z,100577.21
2023-05-24T00:57:08.774Z,100577.52
2023-05-24T00:59:41.767Z,100575.88
2023-05-24T01:02:14.792Z,100579.63
2023-05-24T01:04:49.884Z,100580.15
2023-05-24T01:07:29.329Z,100585.48
2023-05-24T01:10:11.937Z,100587.60
2023-05-24T01:12:57.824Z,100596.10
2023-05-24T01:15:43.155Z,100605.30
2023-05-24T01:18:22.548Z,100606.61
2023-05-24T01:21:17.868Z,100605.83
2023-05-24T01:24:06.490Z,100606.63
2023-05-24T01:26:49.862Z,100609.92
2023-05-24T01:29:23.936Z,100609.80
2023-05-24T01:31:58.403Z,100608.30
2023-05-24T01:34:31.308Z,100610.07
2023-05-24T01:37:04.093Z,100608.72
2023-05-24T01:39:38.789Z,100610.92
2023-05-24T01:42:22.521Z,100610.35
2023-05-24T01:45:04.619Z,100611.54
2023-05-24T01:47:49.364Z,100612.18
2023-05-24T01:50:28.366Z,100622.88
2023-05-24T01:53:05.642Z,100629.60
2023-05-24T01:55:40.928Z,100628.43
2023-05-24T01:58:15.379Z,100631.23
2023-05-24T02:00:49.265Z,100633.56
2023-05-24T02:03:22.817Z,100632.44
2023-05-24T02:05:55.880Z,100634.17
2023-05-24T02:08:29.298Z,100634.46
2023-05-24T02:11:02.837Z,100635.11
2023-05-24T02:13:36.696Z,100638.23
2023-05-24T02:16:11.090Z,100644.20
2023-05-24T02:18:46.960Z,100648.59
2023-05-24T02:21:20.067Z,100645.56
2023-05-24T02:23:53.626Z,100651.50
2023-05-24T02:26:26.501Z,100653.48
2023-05-24T02:28:59.394Z,100658.14
2023-05-24T02:31:32.361Z,100661.02
2023-05-24T02:34:05.482Z,100661.95
2023-05-24T02:36:38.412Z,100657.70
2023-05-24T02:39:11.586Z,100661.73
2023-05-24T02:41:44.518Z,100658.23
2023-05-24T02:44:17.593Z,100658.68
2023-05-24T02:46:50.518Z,100657.33
2023-05-24T02:49:23.777Z,100659.63
2023-05-24T02:51:57.674Z,100658.80
2023-05-24T02:54:30.523Z,100657.77
2023-05-24T02:57:04.037Z,100659.89
2023-05-24T02:59:37.421Z,100660.48
2023-05-24T03:02:10.325Z,100659.34
2023-05-24T03:04:44.230Z,100657.55
2023-05-24T03:07:17.710Z,100658.57
2023-05-24T03:09:50.673Z,100656.05
2023-05-24T03:12:23.532Z,100655.58
2023-05-24T03:14:57.620Z,100660.25
2023-05-24T03:17:31.917Z,100665.23
2023-05-24T03:20:08.224Z,100663.96
2023-05-24T03:22:41.765Z,100667.52
2023-05-24T03:25:14.810Z,100669.70
2023-05-24T03:27:47.988Z,100671.84
2023-05-24T03:30:21.685Z,100670.50
2023-05-24T03:33:01.020Z,100668.55
2023-05-24T03:35:34.662Z,100672.77
2023-05-24T03:38:07.582Z,100687.09
2023-05-24T03:40:41.410Z,100694.58
2023-05-24T03:43:22.228Z,100691.06
2023-05-24T03:46:01.931Z,100687.42
2023-05-24T03:48:34.878Z,100690.95
2023-05-24T03:51:09.909Z,100696.56
2023-05-24T03:53:42.779Z,100699.11
2023-05-24T03:56:16.181Z,100698.61
2023-05-24T03:58:49.394Z,100697.30
2023-05-24T04:01:33.420Z,100698.41
2023-05-24T04:04:08.260Z,100701.64
2023-05-24T04:06:42.333Z,100698.58
2023-05-24T04:09:15.995Z,100696.91
2023-05-24T04:11:48.913Z,100698.08
2023-05-24T04:14:22.243Z,100695.40
2023-05-24T04:16:55.372Z,100701.76
2023-05-24T04:19:29.106Z,100708.36
2023-05-24T04:22:02.036Z,100708.77
2023-05-24T04:24:34.969Z,100707.52
2023-05-24T04:27:10.203Z,100712.19
2023-05-24T04:29:46.637Z,100715.38
2023-05-24T04:32:20.972Z,100721.37
2023-05-24T04:34:56.460Z,100722.33
2023-05-24T04:37:30.124Z,100727.94
2023-05-24T04:40:04.529Z,100726.16
2023-05-24T04:42:37.625Z,100723.98
2023-05-24T04:45:12.384Z,100731.30
2023-05-24T04:47:45.451Z,100733.91
2023-05-24T04:50:18.408Z,100732.84
2023-05-24T04:52:51.278Z,100743.86
2023-05-24T04:55:24.419Z,100746.64
2023-05-24T04:57:57.300Z,100749.70
2023-05-24T05:00:30.328Z,100753.52
2023-05-24T05:03:04.060Z,100759.23
2023-05-24T05:05:37.333Z,100760.01
2023-05-24T05:08:10.202Z,100762.62
2023-05-24T05:10:43.429Z,100763.02
2023-05-24T05:13:16.684Z,100764.86
2023-05-24T05:15:49.694Z,100762.04
2023-05-24T05:18:22.674Z,100770.41
2023-05-24T05:20:55.683Z,100773.17
2023-05-24T05:23:29.554Z,100781.34
2023-05-24T05:26:02.910Z,100783.40
2023-05-24T05:28:35.917Z,100789.20
2023-05-24T05:31:08.775Z,100786.30
2023-05-24T05:33:42.954Z,100784.50
2023-05-24T05:36:16.088Z,100785.34
2023-05-24T05:38:49.752Z,100789.25
2023-05-24T05:41:22.726Z,100790.88
2023-05-24T05:43:56.208Z,100788.21
2023-05-24T05:46:29.169Z,100794.01
2023-05-24T05:49:02.173Z,100798.63
2023-05-24T05:51:35.100Z,100796.11
2023-05-24T05:54:09.009Z,100797.66
2023-05-24T05:56:45.882Z,100804.05
2023-05-24T05:59:19.750Z,100808.83
2023-05-24T06:01:52.737Z,100813.01
2023-05-24T06:04:25.698Z,100814.64
2023-05-24T06:06:58.607Z,100815.21
2023-05-24T06:09:31.445Z,100816.16
2023-05-24T06:12:04.975Z,100820.20
2023-05-24T06:14:38.583Z,100820.92
2023-05-24T06:17:11.549Z,100823.65
2023-05-24T06:19:44.918Z,100825.41
2023-05-24T06:22:17.846Z,100825.58
2023-05-24T06:24:51.230Z,100825.94
2023-05-24T06:27:24.114Z,100826.88
2023-05-24T06:29:57.859Z,100826.38
2023-05-24T06:32:30.721Z,100828.94
2023-05-24T06:35:04.287Z,100833.30
2023-05-24T06:37:38.770Z,100837.71
2023-05-24T06:40:13.504Z,100843.13
2023-05-24T06:42:46.371Z,100847.13
2023-05-24T06:45:19.749Z,100850.02
2023-05-24T06:47:52.636Z,100855.79
2023-05-24T06:50:25.541Z,100858.36
2023-05-24T06:52:58.346Z,100867.71
2023-05-24T06:55:31.298Z,100874.07
2023-05-24T06:58:04.154Z,100876.81
2023-05-24T07:00:37.783Z,100880.77
2023-05-24T07:03:11.512Z,100883.34
2023-05-24T07:05:44.485Z,100886.36
2023-05-24T07:08:17.384Z,100891.61
2023-05-24T07:10:50.209Z,100891.48
2023-05-24T07:13:23.396Z,100893.63
2023-05-24T07:15:56.405Z,100896.67
2023-05-24T07:18:29.387Z,100901.51
2023-05-24T07:21:02.327Z,100901.73
2023-05-24T07:23:35.807Z,100905.08
2023-05-24T07:26:09.437Z,100910.70
2023-05-24T07:28:42.381Z,100909.25
2023-05-24T07:31:15.213Z,100911.96
2023-05-24T07:33:48.911Z,100915.00
2023-05-24T07:36:22.376Z,100917.64
2023-05-24T07:38:55.667Z,100921.86
2023-05-24T07:41:30.628Z,100924.00
2023-05-24T07:44:03.491Z,100926.98
2023-05-24T07:46:36.367Z,100931.52
2023-05-24T07:49:09.953Z,100932.19
2023-05-24T07:51:42.984Z,100936.38
2023-05-24T07:54:16.255Z,100938.88
2023-05-24T07:56:50.438Z,100941.40
2023-05-24T07:59:23.826Z,100943.94
2023-05-24T08:02:01.776Z,100948.83
2023-05-24T08:04:35.639Z,100953.88
2023-05-24T08:07:11.096Z,100956.41
2023-05-24T08:09:44.134Z,100956.41
2023-05-24T08:12:17.365Z,100958.06
2023-05-24T08:14:50.870Z,100963.63
2023-05-24T08:17:23.842Z,100970.45
2023-05-24T08:19:57.237Z,100972.85
2023-05-24T08:22:30.067Z,100967.92
2023-05-24T08:25:03.888Z,100970.92
2023-05-24T08:27:37.269Z,100972.38
2023-05-24T08:30:13.918Z,100972.61
2023-05-24T08:32:46.962Z,100976.55
2023-05-24T08:35:21.460Z,100976.94
2023-05-24T08:37:54.817Z,100979.42
2023-05-24T08:40:28.118Z,100982.44
2023-05-24T08:43:03.356Z,100982.84
2023-05-24T08:45:41.387Z,100983.17
2023-05-24T08:48:15.273Z,100986.28
2023-05-24T08:50:49.169Z,100995.94
2023-05-24T08:53:25.982Z,100998.10
2023-05-24T08:55:59.418Z,101001.52
2023-05-24T08:58:33.182Z,101003.09
2023-05-24T09:01:07.544Z,101006.23
2023-05-24T09:03:42.399Z,101009.58
2023-05-24T09:06:18.209Z,101011.38
2023-05-24T09:08:52.805Z,101016.67
2023-05-24T09:11:28.041Z,101025.07
2023-05-24T09:14:02.158Z,101031.11
2023-05-24T09:16:35.820Z,101031.80
2023-05-24T09:19:08.751Z,101035.42
2023-05-24T09:21:42.019Z,101036.02
2023-05-24T09:24:15.572Z,101042.30
2023-05-24T09:26:50.768Z,101044.11
2023-05-24T09:29:26.685Z,101042.12
2023-05-24T09:32:00.640Z,101042.94
2023-05-24T09:34:41.683Z,101046.44
2023-05-24T09:37:17.207Z,101051.11
2023-05-24T09:39:51.750Z,101056.80
2023-05-24T09:42:26.899Z,101059.08
2023-05-24T09:45:06.768Z,101060.72
2023-05-24T09:47:42.006Z,101057.58
2023-05-24T09:50:18.204Z,101056.30
2023-05-24T09:52:54.891Z,101063.58
2023-05-24T09:55:31.170Z,101063.27
2023-05-24T09:58:09.836Z,101063.90
2023-05-24T10:00:44.203Z,101061.86
2023-05-24T10:03:17.336Z,101068.98
2023-05-24T10:05:51.655Z,101063.77
2023-05-24T10:08:24.792Z,101066.00
2023-05-24T10:10:58.693Z,101062.99
2023-05-24T10:13:31.716Z,101064.25
2023-05-24T10:16:04.783Z,101064.27
2023-05-24T10:18:37.986Z,101064.72
2023-05-24T10:21:12.484Z,101063.05
2023-05-24T10:23:53.431Z,101061.08
2023-05-24T10:26:30.976Z,101057.12
2023-05-24T10:29:09.424Z,101050.58
2023-05-24T10:31:45.153Z,101048.55
2023-05-24T10:34:18.491Z,101049.29
2023-05-24T10:36:52.011Z,101047.96
2023-05-24T10:39:26.917Z,101045.08
2023-05-24T10:42:03.564Z,101048.52
2023-05-24T10:44:37.428Z,101049.77
2023-05-24T10:47:14.691Z,101055.67
2023-05-24T10:49:53.540Z,101052.59
2023-05-24T10:52:37.272Z,101052.77
2023-05-24T10:55:12.162Z,101056.07
2023-05-24T10:57:45.114Z,101060.40
2023-05-24T11:00:35.627Z,101061.34
2023-05-24T11:03:12.041Z,101062.39
2023-05-24T11:05:55.909Z,101062.20
2023-05-24T11:08:35.590Z,101061.63
2023-05-24T11:11:24.471Z,101065.08
2023-05-24T11:14:02.291Z,101064.19
2023-05-24T11:16:40.725Z,101067.37
2023-05-24T11:19:18.887Z,101073.85
2023-05-24T11:21:58.973Z,101072.63
2023-05-24T11:24:32.487Z,101072.36
2023-05-24T11:27:06.322Z,101077.29
2023-05-24T11:29:46.157Z,101084.42
2023-05-24T11:32:24.248Z,101083.50
2023-05-24T11:34:58.047Z,101081.60
2023-05-24T11:37:42.490Z,101079.47
2023-05-24T11:40:20.437Z,101080.91
2023-05-24T11:42:53.743Z,101077.70
2023-05-24T11:45:26.833Z,101073.55
2023-05-24T11:48:06.035Z,101070.85
2023-05-24T11:50:49.469Z,101066.91
2023-05-24T11:53:23.392Z,101065.11
2023-05-24T11:55:57.555Z,101067.48
2023-05-24T11:58:50.942Z,101069.55
2023-05-24T12:01:28.749Z,101062.58
2023-05-24T12:04:02.046Z,101064.70
2023-05-24T12:06:43.302Z,101064.77
2023-05-24T12:09:18.233Z,101064.06
2023-05-24T12:11:52.736Z,101064.13
2023-05-24T12:14:31.308Z,101061.47
2023-05-24T12:17:05.181Z,101060.98
2023-05-24T12:19:38.575Z,101061.39
2023-05-24T12:22:11.646Z,101058.39
2023-05-24T12:24:44.715Z,101054.91
2023-05-24T12:27:17.556Z,101055.92
2023-05-24T12:29:50.660Z,101059.04
2023-05-24T12:32:23.646Z,101060.70
2023-05-24T12:34:56.658Z,101057.20
2023-05-24T12:37:34.085Z,101058.85
2023-05-24T12:40:15.900Z,101056.35
2023-05-24T12:42:51.755Z,101059.45
2023-05-24T12:45:26.123Z,101057.21
2023-05-24T12:48:02.925Z,101059.73
2023-05-24T12:50:36.111Z,101057.23
2023-05-24T12:53:08.993Z,101062.20
2023-05-24T12:55:43.358Z,101059.10
2023-05-24T12:58:17.606Z,101061.09
2023-05-24T13:00:52.337Z,101063.36
2023-05-24T13:03:25.483Z,101062.94
2023-05-24T13:06:00.099Z,101060.07
2023-05-24T13:08:33.018Z,101055.22
2023-05-24T13:11:06.079Z,101060.46
2023-05-24T13:13:39.804Z,101057.29
2023-05-24T13:16:12.760Z,101061.71
2023-05-24T13:18:47.356Z,101059.29
2023-05-24T13:21:20.774Z,101060.13
2023-05-24T13:23:54.080Z,101055.44
2023-05-24T13:26:27.033Z,101060.29
2023-05-24T13:31:38.156Z,101063.00
2023-05-24T13:34:11.764Z,101062.79
2023-05-24T13:36:46.695Z,101059.77
2023-05-24T13:39:19.981Z,101055.92
2023-05-24T13:41:53.042Z,101051.11
2023-05-24T13:44:26.149Z,101052.06
2023-05-24T13:46:59.238Z,101048.95
2023-05-24T13:49:32.383Z,101047.78
2023-05-24T13:52:05.391Z,101051.42
2023-05-24T13:54:38.699Z,101055.92
2023-05-24T13:57:11.557Z,101056.38
2023-05-24T13:59:44.601Z,101057.05
2023-05-24T14:02:18.881Z,101056.41
2023-05-24T14:04:52.627Z,101060.59
2023-05-24T14:07:25.592Z,101058.42
2023-05-24T14:09:58.586Z,101057.38
2023-05-24T14:12:31.857Z,101054.80
2023-05-24T14:15:06.742Z,101058.76
2023-05-24T14:17:39.717Z,101060.31
2023-05-24T14:20:13.855Z,101061.52
2023-05-24T14:22:46.986Z,101059.70
2023-05-24T14:25:20.110Z,101060.32
2023-05-24T14:27:53.019Z,101056.95
2023-05-24T14:30:26.044Z,101061.27
2023-05-24T14:32:59.367Z,101067.59
2023-05-24T14:35:38.281Z,101069.52
2023-05-24T14:38:12.854Z,101071.86
2023-05-24T14:40:47.797Z,101074.23
2023-05-24T14:43:20.951Z,101072.80
2023-05-24T14:45:53.928Z,101077.45
2023-05-24T14:48:27.146Z,101085.05
2023-05-24T14:51:00.178Z,101088.70
2023-05-24T14:53:33.169Z,101093.05
2023-05-24T14:56:08.528Z,101100.76
2023-05-24T14:58:41.484Z,101099.20
2023-05-24T15:01:14.451Z,101094.46
2023-05-24T15:03:47.814Z,101089.95
2023-05-24T15:06:21.187Z,101096.06
2023-05-24T15:08:56.324Z,101096.77
2023-05-24T15:11:29.338Z,101098.73
2023-05-24T15:14:03.525Z,101098.77
2023-05-24T15:16:37.691Z,101103.38
2023-05-24T15:19:10.671Z,101105.36
2023-05-24T15:21:43.665Z,101108.30
2023-05-24T15:24:16.704Z,101114.61
2023-05-24T15:26:49.752Z,101113.52
2023-05-24T15:29:22.860Z,101118.43
2023-05-24T15:31:58.730Z,101117.45
2023-05-24T15:34:31.705Z,101121.24
2023-05-24T15:37:04.618Z,101119.43
2023-05-24T15:39:37.664Z,101119.42
2023-05-24T15:42:10.977Z,101127.48
2023-05-24T15:44:44.030Z,101128.13
2023-05-24T15:47:17.565Z,101128.48
2023-05-24T15:49:51.602Z,101128.32
2023-05-24T15:52:24.442Z,101131.41
2023-05-24T15:54:57.361Z,101131.52
2023-05-24T15:57:30.413Z,101133.65
2023-05-24T16:00:04.038Z,101135.80
2023-05-24T16:02:46.035Z,101134.88
2023-05-24T16:05:22.751Z,101135.56
2023-05-24T16:07:55.686Z,101137.89
2023-05-24T16:10:28.590Z,101134.77
2023-05-24T16:13:01.417Z,101138.36
2023-05-24T16:15:36.108Z,101139.16
2023-05-24T16:18:09.737Z,101143.64
2023-05-24T16:20:42.945Z,101148.67
2023-05-24T16:23:16.413Z,101150.81
2023-05-24T16:25:49.503Z,101151.02
2023-05-24T16:28:24.983Z,101150.84
2023-05-24T16:30:58.878Z,101151.26
2023-05-24T16:33:31.901Z,101156.02
2023-05-24T16:36:05.017Z,101154.97
2023-05-24T16:38:38.326Z,101160.25
2023-05-24T16:41:11.539Z,101160.64
2023-05-24T16:43:44.487Z,101163.08
2023-05-24T16:46:17.521Z,101169.39
2023-05-24T16:48:50.949Z,101172.81
2023-05-24T16:51:24.536Z,101175.46
2023-05-24T16:53:57.486Z,101180.38
2023-05-24T16:56:30.688Z,101182.30
2023-05-24T16:59:03.537Z,101189.11
2023-05-24T17:01:37.741Z,101186.77
2023-05-24T17:04:10.685Z,101185.73
2023-05-24T17:06:43.768Z,101187.55
2023-05-24T17:09:16.976Z,101189.74
2023-05-24T17:11:50.916Z,101193.14
2023-05-24T17:14:24.044Z,101193.28
2023-05-24T17:16:56.945Z,101197.21
2023-05-24T17:19:29.868Z,101203.41
2023-05-24T17:22:02.752Z,101206.20
2023-05-24T17:24:35.789Z,101211.20
2023-05-24T17:27:09.169Z,101214.84
2023-05-24T17:29:44.753Z,101213.86
2023-05-24T17:32:17.767Z,101214.52
2023-05-24T17:34:50.750Z,101214.10
2023-05-24T17:37:23.750Z,101216.23
2023-05-24T17:39:56.625Z,101218.11
2023-05-24T17:42:29.628Z,101224.30
2023-05-24T17:45:02.860Z,101225.79
2023-05-24T17:47:35.867Z,101230.46
2023-05-24T17:50:11.145Z,101235.11
2023-05-24T17:52:43.943Z,101241.61
2023-05-24T17:55:17.000Z,101241.60
2023-05-24T17:57:50.880Z,101241.27
2023-05-24T18:00:24.158Z,101241.89
2023-05-24T18:02:57.067Z,101245.10
2023-05-24T18:05:30.211Z,101248.49
2023-05-24T18:08:03.607Z,101250.77
2023-05-24T18:10:36.658Z,101253.39
2023-05-24T18:13:10.620Z,101257.43
2023-05-24T18:15:44.410Z,101261.50
2023-05-24T18:18:17.655Z,101267.79
2023-05-24T18:20:52.325Z,101268.20
2023-05-24T18:23:25.357Z,101269.65
2023-05-24T18:26:00.605Z,101276.21
2023-05-24T18:28:37.872Z,101280.39
2023-05-24T18:31:11.897Z,101282.42
2023-05-24T18:33:45.405Z,101288.67
2023-05-24T18:36:18.464Z,101293.16
2023-05-24T18:38:51.325Z,101298.00
2023-05-24T18:41:24.245Z,101303.24
2023-05-24T18:43:57.211Z,101308.04
2023-05-24T18:46:30.109Z,101307.86
2023-05-24T18:49:03.496Z,101310.04
2023-05-24T18:51:38.032Z,101314.75
2023-05-24T18:54:11.020Z,101314.55
2023-05-24T18:56:45.909Z,101319.05
2023-05-24T18:59:18.921Z,101331.16
2023-05-24T19:01:53.638Z,101330.54
2023-05-24T19:04:26.744Z,101333.45
2023-05-24T19:06:59.999Z,101332.70
2023-05-24T19:09:32.935Z,101335.23
2023-05-24T19:12:09.892Z,101343.70
2023-05-24T19:14:43.121Z,101347.20
2023-05-24T19:17:16.003Z,101351.63
2023-05-24T19:19:49.584Z,101349.97
2023-05-24T19:22:22.636Z,101354.05
2023-05-24T19:24:56.154Z,101355.45
2023-05-24T19:27:29.093Z,101358.02
2023-05-24T19:30:01.965Z,101359.11
2023-05-24T19:32:35.971Z,101364.20
2023-05-24T19:35:11.286Z,101365.35
2023-05-24T19:37:44.178Z,101363.00
2023-05-24T19:40:17.066Z,101357.77
2023-05-24T19:42:49.931Z,101361.53
2023-05-24T19:45:22.913Z,101358.08
2023-05-24T19:47:55.918Z,101359.52
2023-05-24T19:50:31.152Z,101368.45
2023-05-24T19:53:04.650Z,101369.46
2023-05-24T19:55:38.128Z,101373.65
2023-05-24T19:58:11.164Z,101371.08
2023-05-24T20:00:44.020Z,101375.67
2023-05-24T20:03:17.060Z,101378.05
2023-05-24T20:05:50.001Z,101382.85
2023-05-24T20:08:22.933Z,101388.77
2023-05-24T20:10:56.048Z,101386.45
2023-05-24T20:13:29.000Z,101387.95
2023-05-24T20:16:03.019Z,101387.95
2023-05-24T20:18:36.525Z,101386.98
2023-05-24T20:21:09.527Z,101386.48
2023-05-24T20:23:44.279Z,101390.52
2023-05-24T20:26:17.282Z,101385.96
2023-05-24T20:28:52.343Z,101386.46
2023-05-24T20:31:25.298Z,101387.89
2023-05-24T20:33:58.155Z,101385.48
2023-05-24T20:36:32.324Z,101388.69
2023-05-24T20:39:05.527Z,101389.42
2023-05-24T20:41:38.425Z,101388.63
2023-05-24T20:44:11.252Z,101387.56
2023-05-24T20:46:44.161Z,101388.77
2023-05-24T20:49:17.019Z,101385.05
2023-05-24T20:51:50.019Z,101389.05
2023-05-24T20:54:22.947Z,101389.05
2023-05-24T20:56:55.848Z,101386.34
2023-05-24T20:59:29.432Z,101385.72
2023-05-24T21:02:02.295Z,101387.24
2023-05-24T21:04:35.301Z,101385.97
2023-05-24T21:07:09.266Z,101387.70
2023-05-24T21:09:42.127Z,101388.77
2023-05-24T21:12:15.057Z,101391.77
2023-05-24T21:14:48.151Z,101393.02
2023-05-24T21:17:20.974Z,101398.75
2023-05-24T21:19:53.856Z,101393.69
2023-05-24T21:22:26.743Z,101396.08
2023-05-24T21:24:59.860Z,101403.36
2023-05-24T21:27:32.727Z,101402.98
2023-05-24T21:30:06.215Z,101410.98
2023-05-24T21:32:39.213Z,101411.94
2023-05-24T21:35:13.132Z,101412.25
2023-05-24T21:37:46.595Z,101414.20
2023-05-24T21:40:19.732Z,101419.01
2023-05-24T21:42:52.620Z,101418.47
2023-05-24T21:45:25.453Z,101418.63
2023-05-24T21:47:58.390Z,101413.46
2023-05-24T21:50:31.930Z,101416.84
2023-05-24T21:53:05.220Z,101416.35
2023-05-24T21:55:38.152Z,101415.25
2023-05-24T21:58:11.096Z,101414.83
2023-05-24T22:00:44.002Z,101418.52
2023-05-24T22:03:17.014Z,101415.48
2023-05-24T22:05:50.207Z,101416.48
2023-05-24T22:08:23.083Z,101417.53
2023-05-24T22:10:56.713Z,101417.09
2023-05-24T22:13:29.607Z,101414.14
2023-05-24T22:16:02.552Z,101413.41
2023-05-24T22:18:35.622Z,101421.14
2023-05-24T22:21:08.635Z,101425.13
2023-05-24T22:23:41.549Z,101430.50
2023-05-24T22:26:17.274Z,101432.00
2023-05-24T22:28:55.359Z,101428.91
2023-05-24T22:31:29.112Z,101426.09
2023-05-24T22:34:02.899Z,101426.05
2023-05-24T22:36:38.152Z,101431.27
2023-05-24T22:39:11.735Z,101431.11
2023-05-24T22:41:44.602Z,101436.02
2023-05-24T22:44:17.659Z,101438.93
2023-05-24T22:46:54.058Z,101436.11
2023-05-24T22:49:29.813Z,101429.28
2023-05-24T22:52:02.837Z,101427.65
2023-05-24T22:54:35.849Z,101430.60
2023-05-24T22:57:08.878Z,101437.84
2023-05-24T22:59:42.986Z,101445.05
2023-05-24T23:02:15.955Z,101445.33
2023-05-24T23:04:49.424Z,101448.79
2023-05-24T23:07:22.388Z,101454.24
2023-05-24T23:09:55.300Z,101458.73
2023-05-24T23:12:28.288Z,101452.48
2023-05-24T23:15:01.151Z,101446.78
2023-05-24T23:17:34.084Z,101446.76
2023-05-24T23:20:10.379Z,101445.35
2023-05-24T23:22:43.437Z,101445.76
2023-05-24T23:25:16.263Z,101445.16
2023-05-24T23:27:49.231Z,101448.82
2023-05-24T23:30:22.270Z,101451.77
2023-05-24T23:32:55.129Z,101446.74
2023-05-24T23:35:27.989Z,101452.67
2023-05-24T23:38:01.555Z,101456.45
2023-05-24T23:40:34.600Z,101455.59
2023-05-24T23:43:07.512Z,101454.28
2023-05-24T23:45:40.448Z,101450.25
2023-05-24T23:48:13.310Z,101451.83
2023-05-24T23:50:53.956Z,101448.73
2023-05-24T23:53:27.817Z,101447.96
2023-05-24T23:56:00.745Z,101444.74
2023-05-24T23:58:33.680Z,101445.74
